Dallas, Texas
Traffic Map
Current Weather Conditions
Dallas, Texas
Overcast
Overcast

Feels Like: 7°
Wind Chill: Ceiling: 3200
Heat Index: Visibility: 10mi
Dew Point: Wind: 7mph
Humidity: 80% Direction: 90° (E)
Pressure: 30.18in Gusts: 0mph
Raw Report DataKDAL 210130Z 09006KT 10SM SCT016 OVC032 09/06 A3018 RMK AO2 T00890056
Traffic Incident Summary
Active as of:
Severity:
Category:
InformationThere was an issue retrieving the traffic information for this location. Please try a different location or try again shortly.
Advertisements
Track Severe Weather on mobile